Detalii statie TRANSAVIA REDIU [0000197C]

Toti senzorii

Date Temperatura solului [C]Precipitatii [mm]Voltaj baterie [mV]Leaf Wetness [Min]HC Air temperature [C]HC Relative humidity [%]Punctul de roua [C]
medieminmaxsumaultimatimpmedieminmaxmediemediemin
2019-02-21 00:00:00 0 -0.2 0 0 6562 2.55 2.48 2.62 100 2.5 2.4
2019-02-21 01:00:00 -0.1 -0.2 0 0 6552 2.6 2.5 2.68 100 2.5 2.5
2019-02-21 02:00:00 -0.1 -0.2 0 0 6552 2.6 2.48 2.73 100 2.5 2.4
2019-02-21 03:00:00 -0.1 -0.3 0 0 6552 2 1.51 2.48 100 1.9 1.5
2019-02-21 04:00:00 -0.1 -0.2 -0.1 0 6542 1.28 1.17 1.45 100 1.2 1.1
2019-02-21 05:00:00 -0.1 -0.2 -0.1 0 6542 1.38 1.1 1.7 100 1.3 1.1
2019-02-21 06:00:00 -0.1 -0.2 -0.1 0 6542 1.64 1.54 1.79 100 1.6 1.5
2019-02-21 07:00:00 -0.1 -0.3 -0.1 0 6542 0.98 0.66 1.51 100 0.9 0.6
2019-02-21 08:00:00 -0.1 -0.3 -0.1 0 6542 0.94 0.65 1.38 100 0.8 0.6
2019-02-21 09:00:00 -0.1 -0.2 0 0 6572 1.92 1.49 2.29 100 1.8 1.4
2019-02-21 10:00:00 -0.1 -0.2 0 0 6620 2.8 2.36 3.24 92.89 1.6 1.1
2019-02-21 11:00:00 -0.1 -0.2 0 0 6660 3.57 3.31 4.28 90.13 1.9 1.6
2019-02-21 12:00:00 -0.1 -0.3 0 0 6678 4.58 4.34 4.81 84.55 2.1 1.7
2019-02-21 13:00:00 0 -0.2 0 0 6688 4.71 4.51 4.99 84.04 2.1 1.4
2019-02-21 14:00:00 -0.1 -0.2 -0.1 0 6718 4.99 4.73 5.34 82.93 2.2 1.6
2019-02-21 15:00:00 -0.1 -0.3 0 0 6678 5.31 5.19 5.48 80.24 2 1.5
2019-02-21 16:00:00 -0.1 -0.2 -0.1 0 6806 5.56 5.17 5.97 77.21 1.7 0.9
2019-02-21 17:00:00 -0.1 -0.3 -0.1 0 6748 5.45 4.55 5.88 79.61 2 1.5
2019-02-21 18:00:00 -0.1 -0.3 -0.1 0 6640 3.38 1.91 4.44 88.6 1.5 1
2019-02-21 19:00:00 -0.1 -0.3 -0.1 0 6600 1.96 1.69 2.5 91.85 0.6 0.4
2019-02-21 20:00:00 -0.1 -0.3 -0.1 0 6590 1.41 1.21 1.53 94.93 0.5 0.2
2019-02-21 21:00:00 -0.1 -0.4 -0.1 0 6582 -0.29 -1.87 0.88 99.58 -0.3 -1.7
2019-02-21 22:00:00 -0.1 -0.4 -0.1 0 6582 -1.32 -1.87 -0.85 100 -1.1 -1.7
2019-02-21 23:00:00 -0.1 -0.2 -0.1 0 6572 -0.12 -0.72 0.52 100 0 -0.6
2019-02-22 00:00:00 -0.1 -0.2 -0.1 0 6572 0.2 0.12 0.29 100 0.1 0.1
2019-02-22 01:00:00 -0.2 -0.3 -0.1 0 6572 0.64 0.13 1.03 100 0.5 0.1
2019-02-22 02:00:00 -0.1 -0.2 0 0 6572 0.62 0.39 0.97 100 0.5 0.3
2019-02-22 03:00:00 -0.1 -0.2 -0.1 0 6562 0.54 0.44 0.67 100 0.4 0.4
2019-02-22 04:00:00 -0.1 -0.3 -0.1 0 6562 0.48 0.38 0.78 100 0.4 0.3
2019-02-22 05:00:00 -0.1 -0.2 -0.1 0 6562 0.25 -0.12 0.66 100 0.2 0
2019-02-22 06:00:00 -0.1 -0.2 -0.1 0 6552 -0.08 -0.17 -0.01 100 0 0
2019-02-22 07:00:00 -0.1 -0.2 0 0 6552 -0.12 -0.17 -0.07 100 0 0
2019-02-22 08:00:00 -0.1 -0.2 -0.1 0 6542 -0.08 -0.14 0.02 100 0 0
2019-02-22 09:00:00 -0.1 -0.2 -0.1 0 6542 0.02 -0.19 0.32 100 0 0
2019-02-22 10:00:00 -0.1 -0.2 -0.1 0 6572 0.3 0.26 0.34 100 0.2 0.2
2019-02-22 11:00:00 -0.1 -0.2 0 0 6650 0.35 0.27 0.47 100 0.3 0.2
2019-02-22 12:00:00 -0.1 -0.2 -0.1 0.2 6640 -7.94 0.47 91.66 0
2019-02-22 13:00:00 -0.1 -0.2 -0.1 0.6 6640 -7.8 0.86 91.66 0
2019-02-22 14:00:00 -0.1 -0.2 -0.1 1 6610 0.94 0.84 1.03 100 0.9 0.8
2019-02-22 15:00:00 -0.1 -0.2 -0.1 1 6610 0.86 0.65 1.03 100 0.8 0.6
2019-02-22 16:00:00 -0.1 -0.3 -0.1 0.4 6582 0.26 -0.03 0.57 100 0.2 0
2019-02-22 17:00:00 -0.1 -0.2 -0.1 0 6562 -0.57 -1.4 -0.18 100 -0.4 -1.3
2019-02-22 18:00:00 -0.1 -0.2 -0.1 0 6542 -1.79 -2.17 -1.39 100 -1.6 -2
2019-02-22 19:00:00 -0.1 -0.2 -0.1 0 6532 -3.24 -4.11 -2.26 100 -3.1 -4
2019-02-22 20:00:00 -0.1 -0.2 0 0 6522 -4.87 -5.38 -4.23 100 -4.7 -5.2
2019-02-22 21:00:00 -0.1 -0.2 -0.1 0 6512 -6.11 -6.56 -5.46 100 -5.9 -6.4
2019-02-22 22:00:00 -0.1 -0.3 -0.1 0 6512 -7.04 -7.25 -6.69 100 -6.9 -7.1
2019-02-22 23:00:00 -0.1 -0.3 -0.1 0 6502 -7.7 -8.12 -7.16 100 -7.5 -8